Terminal Aerodrome Forecast
Issued by NWS

Home | Current Version | Previous Version | Text Only | Print | Product List | Glossary On
Versions: 1 2 3 4 5 6 7 8 9 10 11 12 13 14 15
000
FTUS43 KDLH 270500
TAFBRD
TAF
KBRD 270520Z 2706/2806 26008KT P6SM FEW060 BKN100
     FM270800 29010KT P6SM VCSH BKN035 OVC060
     FM271400 34014G22KT P6SM VCSH BKN025 BKN050
     FM280200 33007KT P6SM SCT025 BKN050=

USA.gov is the U.S. government's official web portal to all federal, state and local government web resources and services.